createdAt,value
2019-04-10T00:01:01.366Z,1.80
2019-04-10T00:03:36.717Z,1.80
2019-04-10T00:06:03.162Z,1.60
2019-04-10T00:08:33.212Z,2.10
2019-04-10T00:11:03.115Z,2.17
2019-04-10T00:13:33.029Z,1.97
2019-04-10T00:16:03.565Z,1.73
2019-04-10T00:18:33.964Z,2.10
2019-04-10T00:21:04.976Z,1.97
2019-04-10T00:23:35.280Z,1.90
2019-04-10T00:26:05.555Z,1.43
2019-04-10T00:28:35.891Z,1.47
2019-04-10T00:31:07.301Z,1.40
2019-04-10T00:33:37.225Z,1.70
2019-04-10T00:36:07.966Z,2.00
2019-04-10T00:38:39.979Z,2.27
2019-04-10T00:41:10.183Z,2.00
2019-04-10T00:43:41.549Z,1.20
2019-04-10T00:46:11.693Z,1.60
2019-04-10T00:48:41.800Z,1.70
2019-04-10T00:51:12.031Z,1.93
2019-04-10T00:53:41.703Z,1.90
2019-04-10T00:56:12.479Z,1.70
2019-04-10T00:58:43.615Z,1.57
2019-04-10T01:01:13.982Z,1.70
2019-04-10T01:03:44.013Z,1.60
2019-04-10T01:06:15.669Z,2.10
2019-04-10T01:08:45.742Z,1.70
2019-04-10T01:11:17.127Z,2.10
2019-04-10T01:13:47.424Z,1.70
2019-04-10T01:16:17.922Z,2.00
2019-04-10T01:18:47.947Z,1.50
2019-04-10T01:21:18.037Z,1.70
2019-04-10T01:23:48.940Z,1.70
2019-04-10T01:26:19.300Z,2.53
2019-04-10T01:28:49.267Z,1.40
2019-04-10T01:31:20.085Z,1.57
2019-04-10T01:33:50.176Z,1.73
2019-04-10T01:36:20.728Z,1.53
2019-04-10T01:38:51.676Z,1.57
2019-04-10T01:41:21.688Z,1.47
2019-04-10T01:43:52.304Z,2.20
2019-04-10T01:46:22.349Z,1.60
2019-04-10T01:48:53.356Z,1.80
2019-04-10T01:51:23.452Z,2.20
2019-04-10T01:53:54.377Z,1.57
2019-04-10T01:56:30.191Z,2.13
2019-04-10T01:58:57.397Z,1.67
2019-04-10T02:01:32.863Z,1.70
2019-04-10T02:04:02.803Z,1.80
2019-04-10T02:06:33.617Z,1.57
2019-04-10T02:09:05.227Z,1.80
2019-04-10T02:11:34.933Z,1.47
2019-04-10T02:14:05.729Z,1.87
2019-04-10T02:16:35.858Z,1.60
2019-04-10T02:19:06.076Z,1.90
2019-04-10T02:21:36.508Z,1.90
2019-04-10T02:24:07.061Z,1.63
2019-04-10T02:26:37.954Z,1.50
2019-04-10T02:29:07.939Z,1.63
2019-04-10T02:31:39.084Z,1.80
2019-04-10T02:34:10.207Z,1.73
2019-04-10T02:36:40.290Z,1.53
2019-04-10T02:39:23.118Z,1.90
2019-04-10T02:41:43.988Z,2.20
2019-04-10T02:44:14.505Z,1.50
2019-04-10T02:46:45.174Z,1.87
2019-04-10T02:49:16.373Z,1.80
2019-04-10T02:54:43.464Z,2.20
2019-04-10T02:57:17.259Z,1.63
2019-04-10T02:59:47.363Z,2.17
2019-04-10T03:02:18.259Z,2.00
2019-04-10T03:04:49.134Z,1.63
2019-04-10T03:07:19.864Z,1.93
2019-04-10T03:10:02.252Z,1.87
2019-04-10T03:12:23.833Z,2.20
2019-04-10T03:14:54.879Z,2.27
2019-04-10T03:17:26.063Z,2.33
2019-04-10T03:19:56.152Z,2.17
2019-04-10T03:22:27.602Z,1.97
2019-04-10T03:24:58.499Z,2.30
2019-04-10T03:27:29.951Z,3.80
2019-04-10T03:30:00.691Z,2.27
2019-04-10T03:35:49.565Z,2.00
2019-04-10T03:38:19.982Z,2.57
2019-04-10T03:40:50.101Z,2.13
2019-04-10T03:43:23.765Z,2.13
2019-04-10T03:45:55.041Z,1.90
2019-04-10T03:48:25.250Z,2.33
2019-04-10T03:50:56.271Z,2.70
2019-04-10T03:53:27.745Z,1.97
2019-04-10T03:56:01.222Z,2.30
2019-04-10T03:58:33.437Z,2.33
2019-04-10T04:01:04.735Z,2.23
2019-04-10T04:03:35.523Z,2.00
2019-04-10T04:09:27.159Z,2.07
2019-04-10T04:11:58.527Z,2.20
2019-04-10T04:14:28.856Z,2.10
2019-04-10T04:17:00.041Z,2.40
2019-04-10T04:19:31.073Z,2.07
2019-04-10T04:22:01.268Z,2.90
2019-04-10T04:24:31.899Z,1.80
2019-04-10T04:27:02.767Z,1.80
2019-04-10T04:29:34.428Z,1.60
2019-04-10T04:32:13.415Z,1.87
2019-04-10T04:34:43.705Z,1.73
2019-04-10T04:37:14.279Z,1.90
2019-04-10T04:39:45.286Z,2.40
2019-04-10T04:42:15.341Z,2.60
2019-04-10T04:44:47.791Z,2.30
2019-04-10T04:47:18.224Z,2.73
2019-04-10T04:49:50.029Z,2.50
2019-04-10T04:52:20.692Z,2.40
2019-04-10T04:54:51.009Z,1.80
2019-04-10T04:57:26.893Z,2.40
2019-04-10T04:59:56.957Z,2.13
2019-04-10T05:02:30.249Z,2.77
2019-04-10T05:05:02.441Z,2.40
2019-04-10T05:07:33.516Z,2.90
2019-04-10T05:10:13.872Z,2.50
2019-04-10T05:12:45.111Z,2.57
2019-04-10T05:15:16.344Z,2.40
2019-04-10T05:17:47.131Z,2.60
2019-04-10T05:20:19.025Z,2.00
2019-04-10T05:22:51.881Z,2.07
2019-04-10T05:25:21.273Z,2.23
2019-04-10T05:27:51.125Z,2.40
2019-04-10T05:30:21.870Z,2.47
2019-04-10T05:32:53.834Z,2.70
2019-04-10T05:35:23.849Z,2.63
2019-04-10T05:37:54.228Z,2.43
2019-04-10T05:40:24.526Z,2.43
2019-04-10T05:42:55.511Z,3.20
2019-04-10T05:45:25.876Z,3.07
2019-04-10T05:47:56.970Z,2.73
2019-04-10T05:50:27.836Z,2.97
2019-04-10T05:52:58.527Z,3.10
2019-04-10T05:55:28.981Z,2.60
2019-04-10T05:58:10.504Z,2.63
2019-04-10T06:00:56.852Z,2.73
2019-04-10T06:03:28.223Z,3.20
2019-04-10T06:06:00.961Z,3.17
2019-04-10T06:08:31.160Z,3.33
2019-04-10T06:11:01.270Z,3.20
2019-04-10T06:13:32.599Z,2.70
2019-04-10T06:16:03.536Z,3.30
2019-04-10T06:18:33.605Z,2.50
2019-04-10T06:21:05.075Z,2.80
2019-04-10T06:23:35.829Z,2.73
2019-04-10T06:26:10.096Z,3.23
2019-04-10T06:28:40.344Z,2.47
2019-04-10T06:31:10.839Z,3.17
2019-04-10T06:33:42.354Z,3.37
2019-04-10T06:36:13.191Z,3.00
2019-04-10T06:38:44.072Z,3.17
2019-04-10T06:41:16.215Z,2.60
2019-04-10T06:43:46.018Z,3.10
2019-04-10T06:46:16.737Z,2.50
2019-04-10T06:48:47.936Z,3.30
2019-04-10T06:51:19.821Z,2.87
2019-04-10T06:54:00.200Z,2.87
2019-04-10T06:56:22.037Z,3.37
2019-04-10T06:59:03.086Z,3.10
2019-04-10T07:01:43.471Z,2.73
2019-04-10T07:04:07.583Z,3.37
2019-04-10T07:06:50.353Z,3.10
2019-04-10T07:09:11.767Z,2.60
2019-04-10T07:12:18.530Z,3.20
2019-04-10T07:14:50.760Z,3.20
2019-04-10T07:17:27.121Z,2.43
2019-04-10T07:19:57.610Z,2.50
2019-04-10T07:22:27.452Z,3.10
2019-04-10T07:24:58.461Z,2.90
2019-04-10T07:27:33.541Z,2.70
2019-04-10T07:30:01.630Z,3.43
2019-04-10T07:32:31.977Z,2.93
2019-04-10T07:35:02.962Z,2.93
2019-04-10T07:37:34.051Z,2.53
2019-04-10T07:40:05.959Z,3.03
2019-04-10T07:42:39.833Z,2.80
2019-04-10T07:45:27.343Z,3.10
2019-04-10T07:47:57.013Z,3.63
2019-04-10T07:50:28.105Z,3.63
2019-04-10T07:52:59.831Z,2.47
2019-04-10T07:55:30.924Z,2.50
2019-04-10T07:58:02.687Z,2.37
2019-04-10T08:00:32.928Z,2.57
2019-04-10T08:03:04.556Z,2.50
2019-04-10T08:05:35.384Z,2.47
2019-04-10T08:08:05.375Z,2.90
2019-04-10T08:10:36.805Z,3.17
2019-04-10T08:13:08.580Z,3.13
2019-04-10T08:15:38.414Z,3.10
2019-04-10T08:18:08.604Z,2.60
2019-04-10T08:20:38.418Z,2.33
2019-04-10T08:23:10.138Z,2.80
2019-04-10T08:25:41.173Z,3.20
2019-04-10T08:28:11.454Z,2.80
2019-04-10T08:30:41.965Z,2.73
2019-04-10T08:33:12.427Z,2.70
2019-04-10T08:35:42.220Z,2.80
2019-04-10T08:38:13.118Z,3.03
2019-04-10T08:40:43.867Z,3.10
2019-04-10T08:43:14.111Z,2.63
2019-04-10T08:45:50.058Z,2.93
2019-04-10T08:48:17.713Z,2.47
2019-04-10T08:50:48.310Z,3.10
2019-04-10T08:53:18.269Z,2.53
2019-04-10T08:55:48.691Z,2.80
2019-04-10T08:58:19.190Z,2.30
2019-04-10T09:00:50.892Z,3.30
2019-04-10T09:03:20.893Z,2.73
2019-04-10T09:05:51.108Z,2.50
2019-04-10T09:08:21.243Z,2.90
2019-04-10T09:10:52.418Z,3.10
2019-04-10T09:13:24.318Z,2.73
2019-04-10T09:15:56.160Z,2.70
2019-04-10T09:18:27.406Z,3.13
2019-04-10T09:20:57.354Z,2.30
2019-04-10T09:23:37.418Z,2.60
2019-04-10T09:26:00.198Z,3.10
2019-04-10T09:28:30.692Z,2.57
2019-04-10T09:31:01.806Z,2.87
2019-04-10T09:33:32.405Z,2.83
2019-04-10T09:36:02.878Z,2.77
2019-04-10T09:38:33.464Z,2.53
2019-04-10T09:41:03.853Z,2.37
2019-04-10T09:43:34.280Z,2.00
2019-04-10T09:46:04.288Z,2.10
2019-04-10T09:48:34.253Z,2.87
2019-04-10T09:51:04.058Z,3.00
2019-04-10T09:53:39.208Z,2.60
2019-04-10T09:56:09.615Z,2.50
2019-04-10T09:58:40.552Z,2.90
2019-04-10T10:01:15.101Z,2.80
2019-04-10T10:03:45.504Z,2.23
2019-04-10T10:06:25.112Z,2.20
2019-04-10T10:08:47.995Z,3.10
2019-04-10T10:11:18.124Z,2.50
2019-04-10T10:13:48.246Z,2.43
2019-04-10T10:16:18.951Z,2.47
2019-04-10T10:18:49.886Z,4.00
2019-04-10T10:21:20.728Z,2.90
2019-04-10T10:23:52.015Z,2.80
2019-04-10T10:26:22.123Z,1.93
2019-04-10T10:32:11.040Z,2.40
2019-04-10T10:34:42.737Z,3.10
2019-04-10T10:37:12.898Z,2.23
2019-04-10T10:39:43.093Z,2.03
2019-04-10T10:42:13.730Z,2.17
2019-04-10T10:44:44.055Z,2.10
2019-04-10T10:47:15.826Z,2.40
2019-04-10T10:49:45.777Z,3.97
2019-04-10T10:52:15.835Z,2.20
2019-04-10T10:54:45.816Z,2.33
2019-04-10T10:57:15.532Z,1.90
2019-04-10T10:59:51.538Z,1.83
2019-04-10T11:02:21.616Z,2.23
2019-04-10T11:04:53.867Z,2.50
2019-04-10T11:07:33.080Z,2.60
2019-04-10T11:10:04.465Z,2.30
2019-04-10T11:12:35.800Z,2.20
2019-04-10T11:15:07.691Z,2.60
2019-04-10T11:17:40.296Z,2.10
2019-04-10T11:20:24.022Z,2.10
2019-04-10T11:22:54.002Z,2.23
2019-04-10T11:25:24.093Z,2.10
2019-04-10T11:27:54.313Z,2.10
2019-04-10T11:30:24.901Z,2.17
2019-04-10T11:32:55.183Z,1.87
2019-04-10T11:35:28.907Z,2.30
2019-04-10T11:38:01.388Z,2.30
2019-04-10T11:40:34.126Z,2.13
2019-04-10T11:43:05.450Z,2.10
2019-04-10T11:45:43.099Z,1.97
2019-04-10T11:48:08.220Z,1.90
2019-04-10T11:50:38.651Z,2.00
2019-04-10T11:53:10.252Z,1.83
2019-04-10T11:55:46.833Z,2.27
2019-04-10T11:58:17.602Z,2.27
2019-04-10T12:00:51.907Z,1.80
2019-04-10T12:03:18.192Z,1.97
2019-04-10T12:05:50.663Z,1.90
2019-04-10T12:11:10.910Z,2.33
2019-04-10T12:13:24.057Z,2.17
2019-04-10T12:15:54.038Z,1.83
2019-04-10T12:18:55.870Z,2.40
2019-04-10T12:21:26.196Z,2.13
2019-04-10T12:23:56.925Z,2.60
2019-04-10T12:26:27.629Z,1.93
2019-04-10T12:29:00.320Z,2.10
2019-04-10T12:31:30.478Z,2.80
2019-04-10T12:34:01.360Z,2.20
2019-04-10T12:36:31.742Z,2.30
2019-04-10T12:39:06.297Z,2.30
2019-04-10T12:41:36.522Z,2.33
2019-04-10T12:44:07.476Z,2.50
2019-04-10T12:46:37.465Z,2.40
2019-04-10T12:49:07.529Z,2.47
2019-04-10T12:51:38.220Z,1.90
2019-04-10T12:54:08.341Z,2.37
2019-04-10T12:56:38.549Z,2.73
2019-04-10T12:59:08.930Z,2.07
2019-04-10T13:01:42.999Z,2.03
2019-04-10T13:04:12.329Z,2.07
2019-04-10T13:06:46.442Z,2.80
2019-04-10T13:09:17.826Z,1.80
2019-04-10T13:11:48.885Z,2.63
2019-04-10T13:14:19.419Z,2.37
2019-04-10T13:16:50.116Z,2.20
2019-04-10T13:19:20.717Z,3.00
2019-04-10T13:21:51.646Z,2.20
2019-04-10T13:24:23.812Z,2.20
2019-04-10T13:26:55.161Z,1.70
2019-04-10T13:29:25.543Z,2.53
2019-04-10T13:31:55.841Z,2.37
2019-04-10T13:34:26.925Z,2.80
2019-04-10T13:36:56.780Z,2.60
2019-04-10T13:39:28.963Z,2.30
2019-04-10T13:41:58.908Z,2.33
2019-04-10T13:44:29.386Z,2.30
2019-04-10T13:46:59.468Z,2.03
2019-04-10T13:49:30.298Z,2.00
2019-04-10T13:52:01.468Z,2.17
2019-04-10T13:54:31.520Z,2.30
2019-04-10T13:57:01.612Z,2.20
2019-04-10T13:59:31.400Z,2.27
2019-04-10T14:02:02.696Z,2.20
2019-04-10T14:04:33.499Z,2.03
2019-04-10T14:07:04.950Z,2.07
2019-04-10T14:09:43.188Z,2.40
2019-04-10T14:12:06.538Z,2.60
2019-04-10T14:14:37.033Z,2.23
2019-04-10T14:17:06.997Z,2.50
2019-04-10T14:19:37.416Z,2.40
2019-04-10T14:22:07.459Z,2.10
2019-04-10T14:24:42.857Z,2.37
2019-04-10T14:27:22.882Z,2.03
2019-04-10T14:29:52.947Z,2.17
2019-04-10T14:32:29.241Z,2.00
2019-04-10T14:34:59.115Z,2.07
2019-04-10T14:37:29.538Z,2.60
2019-04-10T14:39:59.946Z,2.83
2019-04-10T14:42:30.672Z,2.40
2019-04-10T14:45:01.391Z,2.57
2019-04-10T14:47:31.778Z,2.53
2019-04-10T14:50:02.000Z,2.97
2019-04-10T14:52:32.829Z,2.90
2019-04-10T14:55:04.072Z,1.93
2019-04-10T14:57:34.917Z,2.70
2019-04-10T15:00:08.512Z,2.67
2019-04-10T15:02:39.664Z,2.03
2019-04-10T15:05:10.145Z,1.97
2019-04-10T15:07:39.980Z,2.10
2019-04-10T15:10:10.222Z,3.10
2019-04-10T15:12:43.818Z,2.80
2019-04-10T15:15:16.379Z,2.50
2019-04-10T15:17:48.637Z,2.57
2019-04-10T15:20:19.121Z,2.50
2019-04-10T15:22:49.803Z,2.00
2019-04-10T15:25:20.165Z,1.83
2019-04-10T15:27:51.689Z,2.47
2019-04-10T15:30:22.305Z,2.13
2019-04-10T15:32:52.482Z,2.87
2019-04-10T15:35:22.947Z,2.37
2019-04-10T15:37:53.481Z,2.53
2019-04-10T15:40:25.791Z,2.10
2019-04-10T15:42:55.261Z,2.30
2019-04-10T15:45:26.025Z,2.47
2019-04-10T15:47:58.601Z,2.17
2019-04-10T15:50:28.572Z,2.50
2019-04-10T15:53:00.495Z,2.60
2019-04-10T15:55:32.168Z,2.53
2019-04-10T15:58:04.095Z,2.00
2019-04-10T16:00:51.726Z,2.27
2019-04-10T16:03:22.893Z,2.40
2019-04-10T16:05:53.599Z,2.30
2019-04-10T16:08:26.107Z,2.07
2019-04-10T16:11:04.140Z,2.10
2019-04-10T16:13:39.128Z,2.30
2019-04-10T16:16:27.643Z,2.00
2019-04-10T16:19:10.199Z,1.87
2019-04-10T16:21:41.462Z,1.83
2019-04-10T16:24:12.307Z,2.20
2019-04-10T16:26:43.304Z,1.90
2019-04-10T16:29:14.308Z,2.10
2019-04-10T16:31:46.106Z,1.90
2019-04-10T16:34:17.649Z,1.70
2019-04-10T16:36:50.092Z,1.60
2019-04-10T16:39:22.658Z,1.77
2019-04-10T16:41:53.066Z,2.17
2019-04-10T16:44:23.144Z,1.80
2019-04-10T16:46:53.487Z,1.80
2019-04-10T16:49:28.809Z,1.30
2019-04-10T16:51:59.186Z,1.67
2019-04-10T16:54:29.284Z,1.77
2019-04-10T16:57:10.052Z,1.90
2019-04-10T16:59:41.647Z,1.80
2019-04-10T17:02:11.976Z,2.10
2019-04-10T17:04:42.005Z,1.73
2019-04-10T17:07:14.788Z,1.83
2019-04-10T17:09:47.363Z,2.00
2019-04-10T17:12:17.846Z,2.10
2019-04-10T17:14:48.473Z,1.80
2019-04-10T17:17:30.643Z,1.80
2019-04-10T17:19:55.986Z,2.43
2019-04-10T17:22:34.329Z,2.00
2019-04-10T17:24:57.777Z,2.30
2019-04-10T17:27:30.045Z,2.33
2019-04-10T17:30:03.433Z,2.43
2019-04-10T17:32:49.289Z,2.53
2019-04-10T17:41:50.147Z,2.10
2019-04-10T17:45:38.590Z,2.50
2019-04-10T17:49:34.353Z,3.07
2019-04-10T17:54:20.019Z,2.40
2019-04-10T17:57:38.942Z,2.30
2019-04-10T18:03:17.599Z,2.67
2019-04-10T18:05:47.909Z,2.17
2019-04-10T18:08:23.701Z,2.60
2019-04-10T18:10:58.674Z,2.60
2019-04-10T18:13:34.093Z,4.47
2019-04-10T18:16:04.369Z,2.83
2019-04-10T18:18:35.789Z,2.83
2019-04-10T18:21:06.675Z,3.60
2019-04-10T18:23:37.676Z,3.33
2019-04-10T18:26:08.624Z,3.47
2019-04-10T18:28:39.042Z,3.70
2019-04-10T18:31:10.268Z,4.33
2019-04-10T18:33:40.519Z,3.20
2019-04-10T18:36:11.285Z,3.40
2019-04-10T18:38:41.788Z,3.63
2019-04-10T18:41:11.889Z,3.50
2019-04-10T18:43:42.962Z,3.10
2019-04-10T18:46:16.404Z,2.93
2019-04-10T18:48:46.654Z,3.20
2019-04-10T18:51:16.339Z,3.00
2019-04-10T18:53:46.028Z,2.97
2019-04-10T18:56:16.686Z,2.57
2019-04-10T18:59:18.491Z,3.87
2019-04-10T19:02:15.831Z,3.80
2019-04-10T19:04:51.593Z,3.33
2019-04-10T19:07:23.485Z,3.90
2019-04-10T19:09:54.601Z,4.00
2019-04-10T19:12:24.549Z,3.57
2019-04-10T19:14:54.367Z,4.70
2019-04-10T19:17:24.889Z,4.47
2019-04-10T19:19:54.741Z,3.97
2019-04-10T19:22:24.671Z,3.60
2019-04-10T19:24:54.514Z,3.60
2019-04-10T19:27:25.551Z,3.80
2019-04-10T19:29:59.089Z,3.70
2019-04-10T19:32:35.266Z,3.77
2019-04-10T19:35:07.605Z,3.70
2019-04-10T19:37:38.820Z,3.37
2019-04-10T19:40:09.630Z,3.30
2019-04-10T19:42:41.697Z,4.67
2019-04-10T19:45:12.153Z,4.50
2019-04-10T19:47:42.244Z,4.50
2019-04-10T19:50:13.058Z,4.60
2019-04-10T19:52:42.944Z,4.63
2019-04-10T19:55:13.587Z,4.37
2019-04-10T19:57:43.802Z,4.33
2019-04-10T20:00:16.537Z,4.03
2019-04-10T20:02:46.911Z,3.63
2019-04-10T20:05:16.989Z,3.60
2019-04-10T20:07:47.820Z,4.30
2019-04-10T20:10:17.795Z,3.40
2019-04-10T20:12:48.714Z,3.90
2019-04-10T20:15:20.479Z,3.93
2019-04-10T20:17:52.488Z,4.30
2019-04-10T20:20:23.465Z,4.20
2019-04-10T20:22:53.906Z,4.20
2019-04-10T20:25:24.607Z,3.50
2019-04-10T20:27:56.392Z,4.17
2019-04-10T20:30:28.051Z,4.10
2019-04-10T20:33:01.306Z,3.67
2019-04-10T20:35:32.042Z,3.90
2019-04-10T20:38:04.634Z,3.93
2019-04-10T20:40:36.092Z,4.10
2019-04-10T20:43:06.885Z,3.80
2019-04-10T20:45:37.933Z,4.37
2019-04-10T20:48:08.640Z,3.90
2019-04-10T20:50:40.312Z,4.47
2019-04-10T20:53:11.537Z,4.70
2019-04-10T20:55:42.064Z,4.30
2019-04-10T20:58:13.307Z,4.53
2019-04-10T21:00:44.962Z,3.70
2019-04-10T21:03:15.560Z,4.70
2019-04-10T21:05:46.496Z,4.00
2019-04-10T21:08:17.803Z,4.77
2019-04-10T21:10:49.264Z,3.90
2019-04-10T21:13:23.475Z,3.80
2019-04-10T21:15:54.886Z,4.63
2019-04-10T21:18:27.234Z,3.37
2019-04-10T21:21:00.035Z,4.83
2019-04-10T21:23:31.849Z,4.43
2019-04-10T21:26:04.114Z,4.10
2019-04-10T21:28:35.444Z,4.00
2019-04-10T21:31:27.328Z,4.23
2019-04-10T21:34:07.807Z,4.90
2019-04-10T21:36:39.203Z,3.50
2019-04-10T21:39:10.592Z,3.50
2019-04-10T21:41:41.178Z,4.37
2019-04-10T21:44:12.950Z,4.43
2019-04-10T21:46:43.077Z,3.90
2019-04-10T21:49:16.787Z,4.17
2019-04-10T21:51:49.481Z,4.70
2019-04-10T21:54:20.652Z,3.77
2019-04-10T21:56:51.496Z,4.20
2019-04-10T21:59:22.547Z,3.40
2019-04-10T22:01:53.158Z,4.53
2019-04-10T22:04:25.112Z,4.40
2019-04-10T22:07:05.674Z,5.10
2019-04-10T22:09:55.030Z,5.27
2019-04-10T22:12:31.676Z,4.10
2019-04-10T22:14:58.781Z,4.10
2019-04-10T22:17:30.015Z,4.40
2019-04-10T22:20:01.218Z,4.73
2019-04-10T22:22:31.499Z,4.17
2019-04-10T22:25:01.640Z,4.80
2019-04-10T22:27:31.725Z,3.43
2019-04-10T22:30:02.813Z,4.20
2019-04-10T22:32:33.217Z,3.87
2019-04-10T22:35:03.387Z,3.37
2019-04-10T22:37:35.732Z,4.10
2019-04-10T22:40:06.574Z,4.40
2019-04-10T22:42:44.057Z,4.47
2019-04-10T22:45:17.106Z,4.57
2019-04-10T22:47:47.693Z,3.93
2019-04-10T22:50:18.046Z,4.90
2019-04-10T22:52:48.681Z,3.97
2019-04-10T22:55:20.247Z,3.33
2019-04-10T22:57:50.569Z,2.83
2019-04-10T23:00:27.885Z,3.47
2019-04-10T23:02:58.874Z,4.07
2019-04-10T23:05:29.765Z,3.30
2019-04-10T23:08:01.025Z,3.50
2019-04-10T23:10:31.434Z,4.13
2019-04-10T23:13:04.816Z,3.93
2019-04-10T23:15:33.623Z,4.07
2019-04-10T23:18:03.589Z,3.70
2019-04-10T23:20:34.130Z,3.77
2019-04-10T23:23:04.895Z,3.60
2019-04-10T23:25:34.853Z,4.10
2019-04-10T23:28:05.223Z,4.07
2019-04-10T23:30:35.214Z,3.77
2019-04-10T23:33:05.969Z,3.70
2019-04-10T23:35:36.190Z,3.10
2019-04-10T23:38:07.038Z,3.37
2019-04-10T23:40:38.030Z,3.90
2019-04-10T23:43:13.540Z,3.63
2019-04-10T23:45:40.040Z,3.00
2019-04-10T23:48:10.792Z,3.23
2019-04-10T23:50:40.686Z,4.07
2019-04-10T23:53:12.105Z,3.53
2019-04-10T23:55:42.342Z,3.63
2019-04-10T23:58:12.269Z,3.60
